Decoded Metar for LEJR (JEREZ in SPAIN) (IATA:XRY) | Meteo·Mobile Aviation Weather
aviador You're here:

LEJR Decoded Metar

JEREZ in SPAIN
Report Time2018-11-18 01:00:00
UTC Time2018-11-18 01:20:32
Flight Rules vfr VFR
Wind130° at 11 kt
W.Decomp.*RWY 20: 4.1 kt HW 10.2 kt LCW
W.Rank130° ranks 30
Current wind is above 130° avg. (8.0)
Visibility9999 m
Phenomena:N/A
Clouds:N/A
Expected CloudBase > 1,600 ft AGL from Temp-Dew spread
CeilingNone
Temp17°C (ISA +2)
Dew Point13°C (77% RH)
AAT14.0°C
QNH1005 hPa
Density Alt827 ft
Elevation98 ft
Report Wrong Elevation
Raw Report
LEJR 180100Z AUTO 13011KT 100V160 CAVOK 17/13 Q1005=

Extra information for LEJR:More info

Metar Taf Metar & Taf Last 4 Metars F.Rules Stats Wind Profile Meteogram Temp Stats Airport Information Weather charts Add Link Nearby VenuesMetar ALERT Operation Metar Decoded Social comments